Time;durP1;ratioP1;P1;durP2;ratioP2;P2;SDS_P1;SDS_P2;PMS_P1;PMS_P2;Temp;Humidity;BMP_temperature;BMP_pressure;BME280_temperature;BME280_humidity;BME280_pressure;Samples;Min_cycle;Max_cycle;Signal;HPM_P1;HPM_P2
2020/02/09 00:00:57;;;;;;;4.91;3.92;;;;;;;19.29;37.99;101227.14;;;;-53
2020/02/09 00:05:07;;;;;;;4.41;3.95;;;;;;;19.26;37.96;101224.16;;;;-52
2020/02/09 00:09:32;;;;;;;4.33;3.89;;;;;;;19.25;37.99;101227.45;;;;-53
2020/02/09 00:12:51;;;;;;;4.54;3.96;;;;;;;19.22;38.03;101230.52;;;;-52
2020/02/09 00:15:57;;;;;;;4.26;3.86;;;;;;;19.21;38.00;101229.78;;;;-53
2020/02/09 00:21:49;;;;;;;4.79;4.23;;;;;;;19.17;37.95;101229.77;;;;-53
2020/02/09 00:25:23;;;;;;;4.19;3.79;;;;;;;19.16;37.96;101222.97;;;;-52
2020/02/09 00:28:51;;;;;;;4.80;3.99;;;;;;;19.14;37.97;101228.04;;;;-53
2020/02/09 00:32:08;;;;;;;4.41;4.01;;;;;;;19.12;37.95;101235.52;;;;-52
2020/02/09 00:39:56;;;;;;;4.33;3.93;;;;;;;19.07;37.97;101229.44;;;;-52
2020/02/09 00:42:58;;;;;;;4.75;4.03;;;;;;;19.05;38.00;101219.45;;;;-51
2020/02/09 00:45:53;;;;;;;4.99;4.08;;;;;;;19.04;37.97;101214.70;;;;-53
2020/02/09 00:48:46;;;;;;;4.25;3.85;;;;;;;19.01;38.00;101215.63;;;;-53
2020/02/09 00:52:26;;;;;;;4.65;4.11;;;;;;;19.00;37.95;101208.53;;;;-52
2020/02/09 00:54:59;;;;;;;4.96;3.82;;;;;;;18.98;37.99;101209.87;;;;-53
2020/02/09 00:57:53;;;;;;;4.24;3.84;;;;;;;18.98;37.97;101199.55;;;;-53
2020/02/09 01:00:56;;;;;;;4.48;3.99;;;;;;;18.96;38.05;101194.86;;;;-53
2020/02/09 01:11:53;;;;;;;4.82;4.13;;;;;;;18.91;38.02;101189.05;;;;-52
2020/02/09 01:15:11;;;;;;;4.41;4.01;;;;;;;18.89;38.06;101188.02;;;;-52
2020/02/09 01:18:05;;;;;;;4.39;3.96;;;;;;;18.88;38.02;101187.02;;;;-52
2020/02/09 01:20:42;;;;;;;4.38;3.98;;;;;;;18.86;38.09;101177.47;;;;-52
2020/02/09 01:24:42;;;;;;;4.39;3.99;;;;;;;18.84;38.12;101156.89;;;;-53
2020/02/09 01:27:42;;;;;;;4.17;3.77;;;;;;;18.82;38.10;101151.19;;;;-53
2020/02/09 01:30:42;;;;;;;4.42;3.93;;;;;;;18.81;38.10;101148.00;;;;-52
2020/02/09 01:33:42;;;;;;;4.35;3.95;;;;;;;18.80;38.11;101143.81;;;;-53
2020/02/09 01:36:42;;;;;;;4.37;3.96;;;;;;;18.78;38.14;101142.70;;;;-53
2020/02/09 01:39:42;;;;;;;4.64;4.15;;;;;;;18.77;38.08;101138.84;;;;-52
2020/02/09 01:43:42;;;;;;;4.42;4.01;;;;;;;18.76;38.17;101152.27;;;;-53
2020/02/09 01:49:46;;;;;;;4.71;4.04;;;;;;;18.73;38.17;101180.78;;;;-52
2020/02/09 01:52:42;;;;;;;4.55;4.01;;;;;;;18.71;38.17;101177.86;;;;-53
2020/02/09 01:55:42;;;;;;;4.27;3.87;;;;;;;18.70;38.15;101177.98;;;;-52
2020/02/09 01:58:42;;;;;;;4.44;4.03;;;;;;;18.69;38.20;101173.96;;;;-53
2020/02/09 02:01:42;;;;;;;4.46;4.04;;;;;;;18.68;38.18;101172.73;;;;-52
2020/02/09 02:05:42;;;;;;;5.40;4.11;;;;;;;18.66;38.18;101182.42;;;;-52
2020/02/09 02:08:42;;;;;;;4.47;3.94;;;;;;;18.66;38.20;101188.16;;;;-52
2020/02/09 02:11:42;;;;;;;4.27;3.87;;;;;;;18.64;38.22;101191.16;;;;-52
2020/02/09 02:14:42;;;;;;;4.55;4.15;;;;;;;18.63;38.25;101189.59;;;;-52
2020/02/09 02:17:42;;;;;;;4.21;3.81;;;;;;;18.61;38.23;101180.45;;;;-53
2020/02/09 02:21:42;;;;;;;4.77;4.27;;;;;;;18.60;38.23;101188.92;;;;-52
2020/02/09 02:24:42;;;;;;;4.24;3.84;;;;;;;18.60;38.27;101203.36;;;;-53
2020/02/09 02:27:42;;;;;;;4.63;4.11;;;;;;;18.58;38.26;101203.45;;;;-53
2020/02/09 02:30:42;;;;;;;4.30;3.90;;;;;;;18.56;38.24;101196.54;;;;-52
2020/02/09 02:33:42;;;;;;;4.83;4.33;;;;;;;18.57;38.25;101202.07;;;;-52
2020/02/09 02:36:42;;;;;;;4.73;4.21;;;;;;;18.55;38.28;101199.98;;;;-52
2020/02/09 02:39:42;;;;;;;4.41;4.01;;;;;;;18.55;38.26;101189.02;;;;-53
2020/02/09 02:44:42;;;;;;;4.39;3.99;;;;;;;18.53;38.21;101183.70;;;;-53
2020/02/09 02:47:42;;;;;;;4.81;4.03;;;;;;;18.50;38.28;101188.65;;;;-53
2020/02/09 02:50:44;;;;;;;4.71;4.21;;;;;;;18.50;38.27;101192.16;;;;-52
2020/02/09 02:57:52;;;;;;;4.61;4.10;;;;;;;18.47;38.27;101182.95;;;;-53
2020/02/09 03:00:45;;;;;;;4.41;4.01;;;;;;;18.47;38.27;101186.73;;;;-52
2020/02/09 03:05:42;;;;;;;4.48;4.08;;;;;;;18.44;38.28;101176.84;;;;-53
2020/02/09 03:08:42;;;;;;;4.41;4.00;;;;;;;18.43;38.28;101176.86;;;;-53
2020/02/09 03:11:42;;;;;;;5.07;4.35;;;;;;;18.42;38.28;101183.26;;;;-52
2020/02/09 03:22:56;;;;;;;4.46;4.05;;;;;;;18.39;38.31;101185.91;;;;-53
2020/02/09 03:37:42;;;;;;;4.65;4.13;;;;;;;18.34;38.31;101152.72;;;;-53
2020/02/09 03:40:42;;;;;;;4.36;3.96;;;;;;;18.33;38.38;101150.48;;;;-52
2020/02/09 03:43:58;;;;;;;4.51;4.00;;;;;;;18.33;38.34;101141.56;;;;-52
2020/02/09 03:46:59;;;;;;;4.42;4.02;;;;;;;18.31;38.34;101131.41;;;;-52
2020/02/09 03:50:12;;;;;;;4.36;3.96;;;;;;;18.31;38.33;101139.55;;;;-52
2020/02/09 03:58:56;;;;;;;4.27;3.81;;;;;;;18.28;38.36;101131.11;;;;-53
2020/02/09 04:06:08;;;;;;;5.13;4.22;;;;;;;18.26;38.37;101121.19;;;;-53
2020/02/09 04:08:47;;;;;;;4.43;3.99;;;;;;;18.26;38.35;101122.19;;;;-52
2020/02/09 04:16:45;;;;;;;4.14;3.74;;;;;;;18.22;38.31;101117.84;;;;-53
2020/02/09 04:19:56;;;;;;;4.76;4.26;;;;;;;18.22;38.34;101111.05;;;;-52
2020/02/09 04:25:42;;;;;;;4.37;3.97;;;;;;;18.21;38.37;101113.31;;;;-51
2020/02/09 04:28:41;;;;;;;4.60;4.16;;;;;;;18.20;38.35;101116.61;;;;-52
2020/02/09 04:31:42;;;;;;;4.51;4.07;;;;;;;18.20;38.40;101112.42;;;;-52
2020/02/09 04:34:41;;;;;;;5.00;4.26;;;;;;;18.19;38.37;101106.84;;;;-52
2020/02/09 04:37:41;;;;;;;4.41;4.01;;;;;;;18.17;38.40;101102.73;;;;-53
2020/02/09 04:40:42;;;;;;;4.43;3.97;;;;;;;18.17;38.35;101101.95;;;;-53
2020/02/09 04:43:41;;;;;;;4.74;4.19;;;;;;;18.17;38.36;101102.73;;;;-52
2020/02/09 04:46:42;;;;;;;4.42;4.01;;;;;;;18.18;38.44;101101.60;;;;-52
2020/02/09 04:49:42;;;;;;;4.27;3.87;;;;;;;18.19;38.46;101102.62;;;;-52
2020/02/09 04:52:41;;;;;;;4.30;3.90;;;;;;;18.20;38.44;101099.05;;;;-52
2020/02/09 04:55:42;;;;;;;4.18;3.78;;;;;;;18.21;38.41;101098.34;;;;-53
2020/02/09 04:58:41;;;;;;;4.14;3.74;;;;;;;18.22;38.42;101103.09;;;;-53
2020/02/09 05:01:41;;;;;;;4.34;3.94;;;;;;;18.25;38.50;101103.52;;;;-52
2020/02/09 05:04:41;;;;;;;4.80;3.95;;;;;;;18.26;38.48;101100.39;;;;-52
2020/02/09 05:07:42;;;;;;;4.36;3.96;;;;;;;18.29;38.44;101100.30;;;;-52
2020/02/09 05:10:42;;;;;;;4.05;3.65;;;;;;;18.32;38.51;101099.14;;;;-52
2020/02/09 05:13:41;;;;;;;4.11;3.71;;;;;;;18.35;38.46;101103.16;;;;-52
2020/02/09 05:17:04;;;;;;;4.45;3.64;;;;;;;18.40;38.46;101106.54;;;;-53
2020/02/09 05:19:41;;;;;;;4.25;3.85;;;;;;;18.44;38.45;101099.09;;;;-53
2020/02/09 05:22:42;;;;;;;4.11;3.71;;;;;;;18.47;38.47;101099.77;;;;-53
2020/02/09 05:25:41;;;;;;;4.06;3.66;;;;;;;18.51;38.50;101098.37;;;;-53
2020/02/09 05:28:42;;;;;;;4.03;3.63;;;;;;;18.56;38.53;101100.41;;;;-53
2020/02/09 05:31:42;;;;;;;4.11;3.71;;;;;;;18.58;38.48;101099.81;;;;-52
2020/02/09 05:34:42;;;;;;;4.16;3.76;;;;;;;18.62;38.52;101096.08;;;;-53
2020/02/09 05:37:42;;;;;;;4.19;3.79;;;;;;;18.66;38.50;101097.16;;;;-52
2020/02/09 05:40:41;;;;;;;4.02;3.62;;;;;;;18.70;38.51;101095.70;;;;-52
2020/02/09 05:43:42;;;;;;;3.86;3.46;;;;;;;18.72;38.55;101095.00;;;;-53
2020/02/09 05:46:41;;;;;;;4.40;3.81;;;;;;;18.75;38.57;101099.85;;;;-52
2020/02/09 05:49:42;;;;;;;4.41;3.71;;;;;;;18.78;38.53;101095.61;;;;-53
2020/02/09 05:55:44;;;;;;;4.30;3.88;;;;;;;18.85;38.57;101089.38;;;;-53
2020/02/09 05:59:23;;;;;;;4.15;3.75;;;;;;;18.87;38.59;101087.26;;;;-52
2020/02/09 06:02:00;;;;;;;3.93;3.54;;;;;;;18.90;38.59;101088.49;;;;-53
2020/02/09 06:04:53;;;;;;;3.70;3.40;;;;;;;18.94;38.60;101084.48;;;;-53
2020/02/09 06:13:09;;;;;;;3.90;3.57;;;;;;;18.99;38.61;101079.59;;;;-51
2020/02/09 06:15:55;;;;;;;3.98;3.63;;;;;;;19.03;38.59;101081.83;;;;-53
2020/02/09 06:18:57;;;;;;;8.90;4.36;;;;;;;19.03;38.16;101086.61;;;;-52
2020/02/09 06:21:49;;;;;;;7.35;6.56;;;;;;;18.88;36.64;101083.59;;;;-52
2020/02/09 06:27:50;;;;;;;9.64;8.09;;;;;;;18.61;35.19;101092.44;;;;-50
2020/02/09 06:30:49;;;;;;;11.72;8.99;;;;;;;18.49;34.93;101088.22;;;;-49
2020/02/09 06:38:34;;;;;;;10.67;7.65;;;;;;;18.60;35.65;101104.61;;;;-56
2020/02/09 06:41:58;;;;;;;11.56;7.50;;;;;;;18.69;36.65;101103.96;;;;-51
2020/02/09 06:44:47;;;;;;;7.89;6.48;;;;;;;18.74;36.60;101102.64;;;;-58
2020/02/09 06:54:56;;;;;;;11.94;8.69;;;;;;;18.46;34.82;101078.02;;;;-52
2020/02/09 07:02:07;;;;;;;10.06;7.54;;;;;;;18.66;36.92;101083.09;;;;-63
2020/02/09 07:11:53;;;;;;;8.37;6.29;;;;;;;18.85;36.48;101052.18;;;;-52
2020/02/09 07:15:29;;;;;;;8.76;6.11;;;;;;;18.89;36.59;101053.02;;;;-53
2020/02/09 07:17:50;;;;;;;6.50;5.71;;;;;;;18.91;36.66;101047.11;;;;-53
2020/02/09 07:31:49;;;;;;;6.92;5.20;;;;;;;19.06;36.84;101027.65;;;;-51
2020/02/09 07:37:55;;;;;;;6.29;5.19;;;;;;;19.11;36.94;101011.06;;;;-52
2020/02/09 07:41:01;;;;;;;5.45;4.81;;;;;;;19.14;36.95;101006.09;;;;-52
2020/02/09 07:43:48;;;;;;;6.00;4.88;;;;;;;19.16;36.99;100993.24;;;;-50
2020/02/09 07:53:55;;;;;;;5.23;4.67;;;;;;;19.22;37.08;100983.70;;;;-51
2020/02/09 07:56:52;;;;;;;5.29;4.55;;;;;;;19.23;37.11;100981.73;;;;-52
2020/02/09 07:59:54;;;;;;;5.54;4.83;;;;;;;19.25;37.10;100978.27;;;;-51
2020/02/09 08:02:57;;;;;;;5.22;4.58;;;;;;;19.27;37.13;100971.52;;;;-51
2020/02/09 08:05:48;;;;;;;5.33;4.71;;;;;;;19.28;37.12;100969.39;;;;-52
2020/02/09 08:14:34;;;;;;;5.58;4.57;;;;;;;19.31;37.16;100959.38;;;;-52
2020/02/09 08:17:58;;;;;;;4.73;4.23;;;;;;;19.33;37.17;100943.53;;;;-51
2020/02/09 08:21:03;;;;;;;4.71;4.19;;;;;;;19.34;37.22;100933.36;;;;-51
2020/02/09 08:28:54;;;;;;;5.07;4.25;;;;;;;19.38;37.18;100913.37;;;;-51
2020/02/09 08:31:54;;;;;;;4.76;4.27;;;;;;;19.39;37.26;100901.97;;;;-51
2020/02/09 08:35:08;;;;;;;4.77;4.22;;;;;;;19.41;37.20;100905.21;;;;-58
2020/02/09 08:42:48;;;;;;;4.74;3.97;;;;;;;19.46;37.23;100902.52;;;;-50
2020/02/09 08:45:53;;;;;;;4.51;4.03;;;;;;;19.46;37.26;100900.28;;;;-50
2020/02/09 08:49:02;;;;;;;4.41;3.94;;;;;;;19.49;37.18;100898.59;;;;-50
2020/02/09 08:54:52;;;;;;;4.38;3.98;;;;;;;19.52;37.21;100899.14;;;;-50
2020/02/09 08:57:52;;;;;;;6.75;4.19;;;;;;;19.56;37.12;100901.14;;;;-50
2020/02/09 09:01:00;;;;;;;4.57;3.77;;;;;;;19.56;37.14;100895.11;;;;-49
2020/02/09 09:03:51;;;;;;;4.42;3.86;;;;;;;19.60;37.58;100888.10;;;;-47
2020/02/09 09:06:43;;;;;;;4.77;3.87;;;;;;;19.64;37.53;100891.66;;;;-54
2020/02/09 09:09:42;;;;;;;4.69;3.83;;;;;;;19.66;37.67;100880.49;;;;-53
2020/02/09 09:12:42;;;;;;;5.72;3.83;;;;;;;19.70;37.60;100871.58;;;;-52
2020/02/09 09:15:42;;;;;;;4.86;3.85;;;;;;;19.73;37.60;100874.37;;;;-54
2020/02/09 09:18:42;;;;;;;4.59;4.12;;;;;;;19.73;37.73;100871.45;;;;-54
2020/02/09 09:21:42;;;;;;;4.27;3.80;;;;;;;19.73;37.66;100863.19;;;;-58
2020/02/09 09:24:42;;;;;;;4.77;3.59;;;;;;;19.76;37.59;100855.45;;;;-53
2020/02/09 09:27:42;;;;;;;3.99;3.58;;;;;;;19.75;37.58;100844.69;;;;-52
2020/02/09 09:30:42;;;;;;;6.11;3.73;;;;;;;19.77;37.74;100846.46;;;;-54
2020/02/09 09:33:47;;;;;;;4.91;3.59;;;;;;;19.78;37.62;100840.55;;;;-54
2020/02/09 09:36:42;;;;;;;3.75;3.38;;;;;;;19.80;37.89;100833.53;;;;-57
2020/02/09 09:39:42;;;;;;;4.44;3.77;;;;;;;19.80;37.75;100828.52;;;;-55
2020/02/09 09:49:49;;;;;;;5.65;3.71;;;;;;;19.87;38.56;100820.30;;;;-58
2020/02/09 09:52:42;;;;;;;8.39;4.17;;;;;;;19.90;38.24;100817.99;;;;-59
2020/02/09 09:55:42;;;;;;;6.68;3.95;;;;;;;19.90;37.91;100805.42;;;;-59
2020/02/09 09:58:42;;;;;;;8.39;4.05;;;;;;;19.90;37.99;100810.39;;;;-62
2020/02/09 10:01:42;;;;;;;5.04;3.53;;;;;;;19.89;37.87;100802.59;;;;-63
2020/02/09 10:04:42;;;;;;;4.43;3.47;;;;;;;19.88;37.73;100798.02;;;;-62
2020/02/09 10:07:42;;;;;;;4.26;3.42;;;;;;;19.87;37.72;100804.21;;;;-63
2020/02/09 10:10:42;;;;;;;4.74;3.61;;;;;;;19.85;37.68;100801.33;;;;-60
2020/02/09 10:13:42;;;;;;;5.19;3.61;;;;;;;19.88;37.93;100796.77;;;;-56
2020/02/09 10:16:42;;;;;;;4.59;3.84;;;;;;;19.89;37.84;100797.33;;;;-57
2020/02/09 10:19:42;;;;;;;6.11;3.45;;;;;;;19.87;37.64;100792.31;;;;-57
2020/02/09 10:22:42;;;;;;;4.29;3.29;;;;;;;19.87;37.59;100783.22;;;;-58
2020/02/09 10:25:42;;;;;;;3.83;3.33;;;;;;;19.86;37.51;100781.59;;;;-57
2020/02/09 10:28:42;;;;;;;5.54;3.61;;;;;;;19.85;37.38;100779.31;;;;-57
2020/02/09 10:31:42;;;;;;;3.91;3.44;;;;;;;19.84;37.46;100776.91;;;;-57
2020/02/09 10:34:42;;;;;;;6.27;3.55;;;;;;;19.85;37.42;100767.97;;;;-57
2020/02/09 10:37:42;;;;;;;5.28;3.39;;;;;;;19.87;37.67;100767.17;;;;-58
2020/02/09 10:40:42;;;;;;;6.46;3.41;;;;;;;19.90;37.80;100763.63;;;;-60
2020/02/09 10:43:42;;;;;;;3.41;3.07;;;;;;;19.93;37.95;100762.77;;;;-57
2020/02/09 10:57:56;;;;;;;4.16;3.05;;;;;;;20.04;38.23;100741.98;;;;-53
2020/02/09 11:00:56;;;;;;;3.94;3.10;;;;;;;20.05;38.15;100733.66;;;;-52
2020/02/09 11:04:00;;;;;;;3.38;3.08;;;;;;;20.08;38.36;100718.93;;;;-56
2020/02/09 11:06:50;;;;;;;4.24;3.10;;;;;;;20.10;38.25;100705.78;;;;-49
2020/02/09 11:09:55;;;;;;;3.42;3.03;;;;;;;20.11;38.30;100701.90;;;;-46
2020/02/09 11:12:51;;;;;;;4.21;3.15;;;;;;;20.12;38.56;100696.75;;;;-50
2020/02/09 11:20:47;;;;;;;3.68;3.06;;;;;;;20.14;38.11;100680.80;;;;-53
2020/02/09 11:27:07;;;;;;;3.55;2.91;;;;;;;20.11;37.88;100665.75;;;;-53
2020/02/09 11:30:01;;;;;;;3.47;2.91;;;;;;;20.11;37.77;100654.45;;;;-53
2020/02/09 11:37:01;;;;;;;3.71;2.91;;;;;;;20.10;37.67;100645.02;;;;-53
2020/02/09 11:48:57;;;;;;;3.83;2.73;;;;;;;20.06;37.60;100611.64;;;;-53
2020/02/09 11:57:30;;;;;;;2.95;2.68;;;;;;;20.04;37.58;100587.58;;;;-53
2020/02/09 12:02:09;;;;;;;2.89;2.61;;;;;;;20.04;37.60;100575.91;;;;-53
2020/02/09 12:04:58;;;;;;;3.07;2.63;;;;;;;20.03;37.60;100569.99;;;;-53
2020/02/09 12:16:07;;;;;;;3.61;2.57;;;;;;;20.02;37.56;100524.52;;;;-53
2020/02/09 12:21:56;;;;;;;2.87;2.61;;;;;;;20.01;37.48;100515.86;;;;-53
2020/02/09 12:29:59;;;;;;;2.87;2.60;;;;;;;20.00;37.56;100483.97;;;;-53
2020/02/09 12:36:27;;;;;;;3.20;2.59;;;;;;;20.00;37.56;100476.59;;;;-53
2020/02/09 12:38:58;;;;;;;3.00;2.69;;;;;;;20.00;37.56;100465.59;;;;-53
2020/02/09 12:42:57;;;;;;;2.75;2.30;;;;;;;19.99;37.54;100450.56;;;;-53
2020/02/09 12:49:52;;;;;;;2.73;2.45;;;;;;;19.99;37.49;100420.83;;;;-53
2020/02/09 12:53:08;;;;;;;2.60;2.40;;;;;;;19.99;37.53;100416.87;;;;-53
2020/02/09 12:59:59;;;;;;;3.06;2.55;;;;;;;20.01;38.29;100391.70;;;;-48
2020/02/09 13:03:05;;;;;;;3.15;2.48;;;;;;;20.02;38.28;100369.45;;;;-53
2020/02/09 13:06:10;;;;;;;2.60;2.20;;;;;;;20.02;38.37;100365.70;;;;-52
2020/02/09 13:15:51;;;;;;;2.60;2.40;;;;;;;20.07;38.67;100360.20;;;;-62
2020/02/09 13:18:58;;;;;;;2.52;2.30;;;;;;;20.08;38.72;100339.52;;;;-53
2020/02/09 13:26:01;;;;;;;3.06;2.31;;;;;;;20.10;38.39;100311.20;;;;-56
2020/02/09 13:28:52;;;;;;;2.49;2.29;;;;;;;20.08;38.16;100312.63;;;;-57
2020/02/09 13:32:08;;;;;;;2.61;2.40;;;;;;;20.08;38.05;100307.94;;;;-58
2020/02/09 13:34:53;;;;;;;3.95;2.27;;;;;;;20.07;38.04;100297.10;;;;-57
2020/02/09 13:40:52;;;;;;;2.42;2.22;;;;;;;20.05;37.95;100282.84;;;;-56
2020/02/09 13:45:10;;;;;;;3.00;2.42;;;;;;;20.05;37.87;100286.30;;;;-57
2020/02/09 13:50:58;;;;;;;2.71;2.31;;;;;;;20.05;37.85;100264.56;;;;-56
2020/02/09 13:54:00;;;;;;;2.15;1.95;;;;;;;20.05;37.87;100268.25;;;;-57
2020/02/09 13:56:50;;;;;;;2.41;2.21;;;;;;;20.03;37.84;100263.48;;;;-57
2020/02/09 14:07:53;;;;;;;2.31;2.11;;;;;;;20.03;37.81;100232.47;;;;-56
2020/02/09 14:19:59;;;;;;;2.82;2.07;;;;;;;20.02;37.81;100251.77;;;;-58
2020/02/09 14:22:56;;;;;;;2.24;2.04;;;;;;;20.01;37.79;100244.63;;;;-57
2020/02/09 14:40:23;;;;;;;5.15;2.35;;;;;;;20.02;38.41;100197.91;;;;-56
2020/02/09 14:46:32;;;;;;;2.64;2.11;;;;;;;20.07;38.46;100196.25;;;;-47
2020/02/09 14:56:14;;;;;;;5.71;2.05;;;;;;;20.15;39.47;100126.63;;;;-50
2020/02/09 15:02:12;;;;;;;3.61;2.20;;;;;;;20.16;38.85;100116.02;;;;-53
2020/02/09 15:08:09;;;;;;;3.32;2.00;;;;;;;20.16;38.79;100108.47;;;;-57
2020/02/09 15:11:18;;;;;;;3.61;2.03;;;;;;;20.16;38.58;100099.75;;;;-51
2020/02/09 15:19:42;;;;;;;2.25;1.96;;;;;;;20.17;38.75;100054.28;;;;-50
2020/02/09 15:26:18;;;;;;;2.35;2.04;;;;;;;20.19;38.53;100036.64;;;;-52
2020/02/09 15:29:17;;;;;;;3.56;2.01;;;;;;;20.18;38.59;100030.06;;;;-51
2020/02/09 15:35:32;;;;;;;3.07;1.90;;;;;;;20.19;38.45;100016.63;;;;-49
2020/02/09 15:38:11;;;;;;;2.70;1.97;;;;;;;20.18;38.31;100006.42;;;;-50
2020/02/09 15:41:25;;;;;;;4.10;1.97;;;;;;;20.17;38.41;99990.41;;;;-59
2020/02/09 15:44:11;;;;;;;5.49;1.90;;;;;;;20.20;38.69;99979.17;;;;-59
2020/02/09 15:51:57;;;;;;;2.62;1.85;;;;;;;20.20;38.71;99951.41;;;;-57
2020/02/09 15:55:14;;;;;;;2.51;1.86;;;;;;;20.21;38.66;99936.84;;;;-62
2020/02/09 15:58:23;;;;;;;2.20;2.00;;;;;;;20.22;38.80;99912.67;;;;-59
2020/02/09 16:07:14;;;;;;;3.30;2.03;;;;;;;20.27;38.90;99879.20;;;;-57
2020/02/09 16:10:28;;;;;;;5.61;2.13;;;;;;;20.29;38.66;99882.82;;;;-58
2020/02/09 16:13:32;;;;;;;3.91;2.17;;;;;;;20.29;38.87;99895.27;;;;-62
2020/02/09 16:16:10;;;;;;;3.24;1.98;;;;;;;20.29;38.98;99884.02;;;;-54
2020/02/09 16:19:16;;;;;;;4.25;2.27;;;;;;;20.29;38.66;99881.01;;;;-54
2020/02/09 16:22:27;;;;;;;5.74;2.15;;;;;;;20.30;38.75;99882.22;;;;-56
2020/02/09 16:25:16;;;;;;;4.47;1.89;;;;;;;20.30;38.83;99881.05;;;;-55
2020/02/09 16:28:24;;;;;;;4.27;1.93;;;;;;;20.30;38.84;99877.28;;;;-56
2020/02/09 16:36:29;;;;;;;6.12;1.99;;;;;;;20.32;38.90;99868.02;;;;-57
2020/02/09 16:39:18;;;;;;;3.39;1.95;;;;;;;20.32;38.77;99853.20;;;;-52
2020/02/09 16:45:23;;;;;;;3.05;1.89;;;;;;;20.33;38.42;99827.91;;;;-59
2020/02/09 16:56:14;;;;;;;3.12;1.99;;;;;;;20.31;38.57;99826.00;;;;-58
2020/02/09 17:07:14;;;;;;;3.84;2.12;;;;;;;20.33;38.67;99818.35;;;;-56
2020/02/09 17:15:11;;;;;;;3.12;1.99;;;;;;;20.33;38.73;99817.68;;;;-59
2020/02/09 17:21:24;;;;;;;2.85;1.87;;;;;;;20.33;38.53;99794.97;;;;-60
2020/02/09 17:24:19;;;;;;;2.77;1.83;;;;;;;20.34;38.74;99784.27;;;;-59
2020/02/09 17:39:18;;;;;;;2.59;1.88;;;;;;;20.31;38.13;99768.59;;;;-55
2020/02/09 17:47:11;;;;;;;2.10;1.90;;;;;;;20.30;37.97;99755.78;;;;-53
2020/02/09 17:50:12;;;;;;;4.02;2.00;;;;;;;20.29;37.97;99766.28;;;;-53
2020/02/09 18:00:23;;;;;;;2.37;1.91;;;;;;;20.28;37.77;99726.31;;;;-51
2020/02/09 18:03:17;;;;;;;2.88;2.10;;;;;;;20.28;37.87;99735.56;;;;-54
2020/02/09 18:10:32;;;;;;;3.17;1.87;;;;;;;20.28;37.89;99705.55;;;;-55
2020/02/09 18:13:53;;;;;;;1.97;1.80;;;;;;;20.28;37.87;99709.91;;;;-55
2020/02/09 18:16:11;;;;;;;2.57;1.83;;;;;;;20.28;37.95;99700.59;;;;-55
2020/02/09 18:24:09;;;;;;;3.47;1.80;;;;;;;20.26;37.96;99676.32;;;;-56
2020/02/09 18:32:02;;;;;;;1.93;1.79;;;;;;;20.26;37.98;99650.30;;;;-57
2020/02/09 18:39:11;;;;;;;2.73;1.90;;;;;;;20.26;38.00;99627.73;;;;-55
2020/02/09 18:42:29;;;;;;;2.51;1.62;;;;;;;20.26;37.98;99632.63;;;;-56
2020/02/09 18:45:20;;;;;;;3.63;1.73;;;;;;;20.27;37.98;99624.91;;;;-54
2020/02/09 18:48:28;;;;;;;1.95;1.70;;;;;;;20.27;37.94;99606.97;;;;-57
2020/02/09 18:51:27;;;;;;;1.83;1.70;;;;;;;20.27;37.96;99581.02;;;;-55
2020/02/09 19:01:18;;;;;;;1.93;1.70;;;;;;;20.31;38.63;99562.91;;;;-56
2020/02/09 19:04:17;;;;;;;1.83;1.70;;;;;;;20.32;38.59;99524.71;;;;-56
2020/02/09 19:11:16;;;;;;;2.06;1.84;;;;;;;20.35;38.63;99479.28;;;;-63
2020/02/09 19:14:29;;;;;;;3.12;1.65;;;;;;;20.35;38.80;99479.01;;;;-63
2020/02/09 19:17:15;;;;;;;1.91;1.75;;;;;;;20.35;38.36;99452.45;;;;-58
2020/02/09 19:23:15;;;;;;;2.21;1.80;;;;;;;20.37;38.51;99460.63;;;;-56
2020/02/09 19:30:18;;;;;;;2.01;1.74;;;;;;;20.40;38.92;99451.30;;;;-54
2020/02/09 19:34:53;;;;;;;2.47;1.54;;;;;;;20.39;38.60;99447.52;;;;-53
2020/02/09 19:41:10;;;;;;;2.04;1.67;;;;;;;20.41;38.52;99466.59;;;;-58
2020/02/09 19:44:41;;;;;;;2.26;1.69;;;;;;;20.40;38.49;99463.44;;;;-57
2020/02/09 19:51:14;;;;;;;3.90;1.91;;;;;;;20.33;38.25;99447.44;;;;-54
2020/02/09 19:54:54;;;;;;;3.02;1.91;;;;;;;20.33;38.06;99459.75;;;;-62
2020/02/09 20:08:13;;;;;;;3.26;1.79;;;;;;;20.32;38.43;99462.33;;;;-55
2020/02/09 20:15:22;;;;;;;2.55;1.69;;;;;;;20.34;38.50;99415.38;;;;-60
2020/02/09 20:18:17;;;;;;;4.09;1.79;;;;;;;20.34;38.49;99410.67;;;;-57
2020/02/09 20:21:12;;;;;;;1.81;1.69;;;;;;;20.34;38.59;99401.19;;;;-59
2020/02/09 20:24:25;;;;;;;4.33;1.81;;;;;;;20.34;38.73;99379.39;;;;-56
2020/02/09 20:27:15;;;;;;;2.02;1.67;;;;;;;20.34;38.66;99355.41;;;;-58
2020/02/09 20:30:08;;;;;;;2.32;1.63;;;;;;;20.33;38.57;99332.34;;;;-59
2020/02/09 20:33:13;;;;;;;2.00;1.63;;;;;;;20.33;38.59;99334.43;;;;-58
2020/02/09 20:36:44;;;;;;;1.98;1.75;;;;;;;20.33;38.66;99348.41;;;;-58
2020/02/09 20:42:22;;;;;;;2.53;1.80;;;;;;;20.32;38.97;99294.58;;;;-57
2020/02/09 20:48:13;;;;;;;2.93;1.87;;;;;;;20.31;39.02;99291.13;;;;-60
2020/02/09 20:59:17;;;;;;;2.51;1.60;;;;;;;20.28;38.91;99256.05;;;;-53
2020/02/09 21:02:17;;;;;;;1.90;1.70;;;;;;;20.26;38.79;99244.91;;;;-62
2020/02/09 21:05:29;;;;;;;3.90;1.73;;;;;;;20.23;38.76;99250.05;;;;-62
2020/02/09 21:08:14;;;;;;;2.05;1.66;;;;;;;20.20;38.66;99251.25;;;;-62
2020/02/09 21:11:13;;;;;;;2.39;1.61;;;;;;;20.17;38.70;99239.72;;;;-61
2020/02/09 21:18:52;;;;;;;2.25;1.71;;;;;;;20.11;38.67;99228.18;;;;-61
2020/02/09 21:27:29;;;;;;;2.05;1.51;;;;;;;20.04;38.65;99228.37;;;;-62
2020/02/09 21:30:16;;;;;;;2.01;1.70;;;;;;;20.02;38.63;99220.69;;;;-61
2020/02/09 21:33:14;;;;;;;3.15;1.60;;;;;;;19.99;38.56;99199.17;;;;-62
2020/02/09 21:40:16;;;;;;;2.45;1.53;;;;;;;19.94;38.57;99177.03;;;;-61
2020/02/09 21:44:53;;;;;;;2.43;1.58;;;;;;;19.92;38.54;99164.25;;;;-61
2020/02/09 21:52:44;;;;;;;1.94;1.59;;;;;;;19.87;38.58;99172.42;;;;-62
2020/02/09 21:55:13;;;;;;;2.57;1.53;;;;;;;19.84;38.60;99197.58;;;;-61
2020/02/09 21:58:14;;;;;;;1.80;1.60;;;;;;;19.83;38.62;99192.10;;;;-61
2020/02/09 22:01:28;;;;;;;1.53;1.42;;;;;;;19.80;38.57;99187.34;;;;-62
2020/02/09 22:07:15;;;;;;;2.41;1.53;;;;;;;19.77;38.62;99162.82;;;;-61
2020/02/09 22:10:24;;;;;;;3.61;1.53;;;;;;;19.74;38.60;99170.89;;;;-61
2020/02/09 22:14:10;;;;;;;1.59;1.47;;;;;;;19.72;38.69;99180.86;;;;-61
2020/02/09 22:17:22;;;;;;;1.62;1.49;;;;;;;19.70;38.71;99187.11;;;;-62
2020/02/09 22:24:13;;;;;;;1.53;1.43;;;;;;;19.65;38.71;99151.19;;;;-62
2020/02/09 22:27:44;;;;;;;1.74;1.45;;;;;;;19.64;38.72;99124.03;;;;-62
2020/02/09 22:34:21;;;;;;;1.81;1.54;;;;;;;19.59;38.75;99112.87;;;;-62
2020/02/09 22:37:23;;;;;;;1.80;1.60;;;;;;;19.58;38.79;99097.95;;;;-61
2020/02/09 22:48:10;;;;;;;1.50;1.40;;;;;;;19.52;38.76;99059.97;;;;-61
2020/02/09 22:52:23;;;;;;;1.50;1.40;;;;;;;19.50;38.78;99051.05;;;;-61
2020/02/09 23:00:39;;;;;;;1.85;1.49;;;;;;;19.45;38.82;99031.52;;;;-61
2020/02/09 23:05:03;;;;;;;3.59;1.58;;;;;;;19.43;38.92;99043.73;;;;-62
2020/02/09 23:08:03;;;;;;;1.60;1.47;;;;;;;19.41;38.86;99020.39;;;;-62
2020/02/09 23:11:04;;;;;;;1.58;1.48;;;;;;;19.39;38.86;99027.55;;;;-62
2020/02/09 23:15:03;;;;;;;1.63;1.53;;;;;;;19.37;38.98;98994.55;;;;-62
2020/02/09 23:18:09;;;;;;;1.57;1.47;;;;;;;19.36;38.98;98987.23;;;;-61
2020/02/09 23:21:07;;;;;;;1.56;1.46;;;;;;;19.35;38.92;98977.50;;;;-61
2020/02/09 23:24:03;;;;;;;1.58;1.48;;;;;;;19.33;38.93;98972.77;;;;-62
2020/02/09 23:27:03;;;;;;;1.53;1.41;;;;;;;19.32;38.98;98965.13;;;;-62
2020/02/09 23:30:03;;;;;;;1.61;1.50;;;;;;;19.30;38.96;98963.44;;;;-61
2020/02/09 23:33:03;;;;;;;1.57;1.41;;;;;;;19.29;39.00;98962.31;;;;-63
2020/02/09 23:36:04;;;;;;;1.41;1.31;;;;;;;19.29;39.03;98948.59;;;;-61
2020/02/09 23:39:03;;;;;;;1.61;1.46;;;;;;;19.27;38.95;98933.48;;;;-61
2020/02/09 23:42:03;;;;;;;1.46;1.36;;;;;;;19.25;38.99;98918.37;;;;-62
2020/02/09 23:45:03;;;;;;;1.50;1.40;;;;;;;19.24;39.01;98939.61;;;;-61
2020/02/09 23:48:03;;;;;;;1.35;1.25;;;;;;;19.22;38.97;98909.95;;;;-62
2020/02/09 23:51:03;;;;;;;1.41;1.31;;;;;;;19.22;39.00;98891.48;;;;-61
2020/02/09 23:54:03;;;;;;;1.49;1.39;;;;;;;19.20;39.03;98873.86;;;;-62
2020/02/09 23:57:03;;;;;;;1.38;1.28;;;;;;;19.19;39.04;98890.74;;;;-62
